createdAt,value
2022-10-17T00:00:49.883Z,98758.66
2022-10-17T00:03:17.753Z,98761.31
2022-10-17T00:05:49.726Z,98757.84
2022-10-17T00:08:17.800Z,98758.66
2022-10-17T00:10:44.346Z,98753.84
2022-10-17T00:13:10.985Z,98753.59
2022-10-17T00:15:37.476Z,98747.44
2022-10-17T00:18:04.031Z,98745.03
2022-10-17T00:20:30.599Z,98747.72
2022-10-17T00:22:57.897Z,98752.25
2022-10-17T00:25:24.723Z,98754.09
2022-10-17T00:27:51.209Z,98750.09
2022-10-17T00:30:19.492Z,98752.75
2022-10-17T00:32:46.015Z,98756.47
2022-10-17T00:35:13.220Z,98750.59
2022-10-17T00:37:40.954Z,98753.25
2022-10-17T00:40:08.531Z,98750.59
2022-10-17T00:42:35.007Z,98754.31
2022-10-17T00:45:07.045Z,98753.50
2022-10-17T00:47:33.668Z,98758.34
2022-10-17T00:52:34.215Z,98764.16
2022-10-17T00:55:15.528Z,98762.56
2022-10-17T00:57:44.128Z,98764.16
2022-10-17T01:00:31.003Z,98752.91
2022-10-17T01:02:57.859Z,98764.72
2022-10-17T01:05:24.541Z,98768.19
2022-10-17T01:07:52.967Z,98766.59
2022-10-17T01:10:19.646Z,98756.97
2022-10-17T01:12:52.080Z,98767.66
2022-10-17T01:15:31.668Z,98760.69
2022-10-17T01:18:07.247Z,98762.31
2022-10-17T01:21:11.322Z,98752.91
2022-10-17T01:24:09.119Z,98752.69
2022-10-17T01:26:44.473Z,98752.69
2022-10-17T01:29:42.210Z,98754.00
2022-10-17T01:32:35.685Z,98761.19
2022-10-17T01:35:25.308Z,98756.91
2022-10-17T01:38:08.331Z,98754.53
2022-10-17T01:40:39.882Z,98745.69
2022-10-17T01:43:21.787Z,98741.41
2022-10-17T01:46:00.646Z,98745.94
2022-10-17T01:48:37.053Z,98751.56
2022-10-17T01:51:16.991Z,98743.56
2022-10-17T01:53:47.149Z,98742.75
2022-10-17T01:56:15.701Z,98738.44
2022-10-17T01:59:12.767Z,98737.66
2022-10-17T02:01:39.328Z,98739.00
2022-10-17T02:04:05.901Z,98730.44
2022-10-17T02:06:36.676Z,98723.00
2022-10-17T02:09:22.127Z,98727.56
2022-10-17T02:12:13.260Z,98723.81
2022-10-17T02:14:53.737Z,98718.47
2022-10-17T02:17:45.233Z,98713.16
2022-10-17T02:20:17.747Z,98718.47
2022-10-17T02:23:10.177Z,98714.22
2022-10-17T02:25:42.107Z,98713.16
2022-10-17T02:28:24.405Z,98721.16
2022-10-17T02:31:34.212Z,98716.63
2022-10-17T02:34:09.566Z,98715.81
2022-10-17T02:36:46.323Z,98716.88
2022-10-17T02:39:14.303Z,98711.25
2022-10-17T02:41:43.655Z,98702.44
2022-10-17T02:44:11.200Z,98709.13
2022-10-17T02:46:39.849Z,98712.88
2022-10-17T02:52:08.342Z,98723.81
2022-10-17T02:55:10.812Z,98722.22
2022-10-17T02:57:39.919Z,98723.00
2022-10-17T03:00:12.181Z,98718.47
2022-10-17T03:02:46.656Z,98718.75
2022-10-17T03:05:15.462Z,98722.22
2022-10-17T03:07:42.628Z,98714.72
2022-10-17T03:10:09.584Z,98717.94
2022-10-17T03:12:36.520Z,98706.44
2022-10-17T03:15:03.024Z,98712.63
2022-10-17T03:17:30.417Z,98714.22
2022-10-17T03:19:59.534Z,98711.78
2022-10-17T03:22:26.907Z,98710.97
2022-10-17T03:24:54.566Z,98712.03
2022-10-17T03:27:21.348Z,98713.91
2022-10-17T03:29:48.077Z,98705.13
2022-10-17T03:32:14.556Z,98708.84
2022-10-17T03:34:42.443Z,98710.19
2022-10-17T03:37:09.172Z,98713.13
2022-10-17T03:39:35.910Z,98707.78
2022-10-17T03:42:03.488Z,98712.31
2022-10-17T03:44:29.995Z,98717.66
2022-10-17T03:46:59.283Z,98724.84
2022-10-17T03:49:29.146Z,98724.03
2022-10-17T03:51:55.721Z,98717.91
2022-10-17T03:54:22.271Z,98728.59
2022-10-17T03:56:49.056Z,98722.94
2022-10-17T03:59:15.919Z,98720.28
2022-10-17T04:01:44.590Z,98728.28
2022-10-17T04:04:12.115Z,98732.81
2022-10-17T04:06:40.382Z,98733.06
2022-10-17T04:09:08.344Z,98736.50
2022-10-17T04:11:38.453Z,98743.72
2022-10-17T04:14:05.265Z,98737.84
2022-10-17T04:16:31.748Z,98747.72
2022-10-17T04:18:59.162Z,98738.66
2022-10-17T04:21:28.619Z,98732.25
2022-10-17T04:23:56.243Z,98735.97
2022-10-17T04:26:23.736Z,98741.31
2022-10-17T04:28:50.474Z,98742.38
2022-10-17T04:31:17.270Z,98747.72
2022-10-17T04:33:45.207Z,98740.25
2022-10-17T04:36:12.773Z,98750.91
2022-10-17T04:38:39.348Z,98750.13
2022-10-17T04:41:08.572Z,98757.31
2022-10-17T04:43:36.388Z,98750.13
2022-10-17T04:46:06.812Z,98753.03
2022-10-17T04:48:33.332Z,98756.50
2022-10-17T04:51:03.904Z,98746.91
2022-10-17T04:53:35.851Z,98750.38
2022-10-17T04:56:07.920Z,98756.50
2022-10-17T04:58:34.705Z,98747.72
2022-10-17T05:01:06.869Z,98750.38
2022-10-17T05:03:34.421Z,98744.25
2022-10-17T05:06:09.779Z,98746.13
2022-10-17T05:08:36.269Z,98744.47
2022-10-17T05:11:02.829Z,98750.06
2022-10-17T05:13:30.575Z,98743.13
2022-10-17T05:16:01.173Z,98749.53
2022-10-17T05:18:30.362Z,98746.59
2022-10-17T05:20:57.020Z,98744.22
2022-10-17T05:23:25.987Z,98750.34
2022-10-17T05:25:56.018Z,98754.88
2022-10-17T05:28:25.780Z,98757.53
2022-10-17T05:30:52.249Z,98754.88
2022-10-17T05:33:18.800Z,98755.91
2022-10-17T05:35:45.287Z,98745.50
2022-10-17T05:38:12.174Z,98743.91
2022-10-17T05:40:39.411Z,98743.09
2022-10-17T05:43:06.710Z,98746.84
2022-10-17T05:45:34.054Z,98749.50
2022-10-17T05:48:00.523Z,98745.78
2022-10-17T05:50:27.233Z,98756.16
2022-10-17T05:52:54.870Z,98758.56
2022-10-17T05:55:22.305Z,98764.97
2022-10-17T05:57:50.264Z,98753.78
2022-10-17T06:00:17.722Z,98754.56
2022-10-17T06:02:49.923Z,98756.16
2022-10-17T06:05:17.001Z,98760.69
2022-10-17T06:07:45.815Z,98762.56
2022-10-17T06:10:16.171Z,98769.75
2022-10-17T06:12:47.815Z,98776.41
2022-10-17T06:15:15.338Z,98786.81
2022-10-17T06:17:41.799Z,98790.53
2022-10-17T06:20:08.643Z,98785.47
2022-10-17T06:22:35.617Z,98779.06
2022-10-17T06:25:06.343Z,98786.00
2022-10-17T06:27:36.358Z,98787.06
2022-10-17T06:30:02.912Z,98799.31
2022-10-17T06:32:29.918Z,98803.84
2022-10-17T06:34:58.448Z,98808.16
2022-10-17T06:37:29.185Z,98803.84
2022-10-17T06:39:57.482Z,98799.91
2022-10-17T06:42:24.762Z,98803.09
2022-10-17T06:44:51.227Z,98803.91
2022-10-17T06:47:20.020Z,98809.84
2022-10-17T06:49:47.838Z,98816.78
2022-10-17T06:52:18.042Z,98816.78
2022-10-17T06:54:46.060Z,98814.91
2022-10-17T06:57:12.991Z,98816.50
2022-10-17T06:59:39.808Z,98815.22
2022-10-17T07:02:07.016Z,98803.75
2022-10-17T07:04:33.594Z,98813.34
2022-10-17T07:07:03.898Z,98816.59
2022-10-17T07:09:31.303Z,98828.91
2022-10-17T07:11:57.767Z,98835.03
2022-10-17T07:14:31.735Z,98833.97
2022-10-17T07:16:59.508Z,98835.56
2022-10-17T07:19:27.052Z,98841.00
2022-10-17T07:21:56.003Z,98849.75
2022-10-17T07:24:22.468Z,98846.31
2022-10-17T07:26:49.006Z,98858.13
2022-10-17T07:29:16.920Z,98852.38
2022-10-17T07:31:45.586Z,98854.41
2022-10-17T07:34:13.236Z,98861.34
2022-10-17T07:36:40.304Z,98867.44
2022-10-17T07:39:07.174Z,98871.72
2022-10-17T07:41:33.691Z,98869.56
2022-10-17T07:44:00.417Z,98874.88
2022-10-17T07:46:26.889Z,98879.22
2022-10-17T07:48:53.426Z,98879.25
2022-10-17T07:51:20.148Z,98885.91
2022-10-17T07:53:48.786Z,98887.03
2022-10-17T07:56:16.098Z,98884.91
2022-10-17T07:58:43.643Z,98882.19
2022-10-17T08:01:15.418Z,98876.81
2022-10-17T08:03:43.740Z,98887.28
2022-10-17T08:06:11.300Z,98884.31
2022-10-17T08:08:38.363Z,98890.59
2022-10-17T08:11:06.991Z,98881.59
2022-10-17T08:13:36.588Z,98881.38
2022-10-17T08:16:06.120Z,98876.06
2022-10-17T08:18:32.944Z,98880.66
2022-10-17T08:21:02.960Z,98880.47
2022-10-17T08:23:31.891Z,98892.47
2022-10-17T08:26:01.959Z,98893.16
2022-10-17T08:28:28.810Z,98880.22
2022-10-17T08:31:15.513Z,98878.66
2022-10-17T08:33:42.083Z,98879.22
2022-10-17T08:36:08.996Z,98875.47
2022-10-17T08:38:36.819Z,98882.44
2022-10-17T08:41:21.207Z,98869.81
2022-10-17T08:44:01.254Z,98875.38
2022-10-17T08:46:32.521Z,98862.16
2022-10-17T08:49:00.638Z,98862.22
2022-10-17T08:51:29.854Z,98849.56
2022-10-17T08:54:33.157Z,98862.50
2022-10-17T08:57:00.011Z,98857.97
2022-10-17T08:59:27.581Z,98860.09
2022-10-17T09:02:03.088Z,98864.91
2022-10-17T09:04:44.464Z,98869.97
2022-10-17T09:07:14.487Z,98865.00
2022-10-17T09:09:54.013Z,98864.59
2022-10-17T09:12:49.220Z,98856.63
2022-10-17T09:15:34.897Z,98855.13
2022-10-17T09:18:21.206Z,98858.91
2022-10-17T09:20:58.138Z,98858.41
2022-10-17T09:23:25.611Z,98860.75
2022-10-17T09:25:53.941Z,98856.16
2022-10-17T09:28:27.809Z,98862.00
2022-10-17T09:31:01.971Z,98859.09
2022-10-17T09:33:55.431Z,98857.44
2022-10-17T09:36:30.081Z,98853.44
2022-10-17T09:38:58.396Z,98864.06
2022-10-17T09:42:04.150Z,98878.25
2022-10-17T09:44:35.649Z,98865.53
2022-10-17T09:47:22.727Z,98874.41
2022-10-17T09:49:51.454Z,98873.34
2022-10-17T09:52:39.644Z,98863.00
2022-10-17T09:55:25.965Z,98877.75
2022-10-17T09:58:01.394Z,98867.88
2022-10-17T10:00:35.275Z,98863.66
2022-10-17T10:03:28.313Z,98864.50
2022-10-17T10:06:02.836Z,98869.38
2022-10-17T10:08:37.450Z,98869.69
2022-10-17T10:11:13.399Z,98872.63
2022-10-17T10:13:40.645Z,98872.06
2022-10-17T10:16:31.167Z,98883.63
2022-10-17T10:18:57.702Z,98883.31
2022-10-17T10:21:25.714Z,98881.75
2022-10-17T10:24:13.588Z,98890.59
2022-10-17T10:26:53.449Z,98889.53
2022-10-17T10:29:30.987Z,98881.47
2022-10-17T10:32:13.813Z,98880.16
2022-10-17T10:35:03.769Z,98887.09
2022-10-17T10:37:46.746Z,98896.72
2022-10-17T10:40:33.412Z,98896.25
2022-10-17T10:43:04.191Z,98894.75
2022-10-17T10:45:47.942Z,98898.81
2022-10-17T10:48:23.885Z,98896.69
2022-10-17T10:50:56.086Z,98902.31
2022-10-17T10:53:47.338Z,98910.38
2022-10-17T10:56:22.174Z,98908.25
2022-10-17T10:59:09.195Z,98902.13
2022-10-17T11:01:44.161Z,98895.72
2022-10-17T11:04:43.139Z,98885.00
2022-10-17T11:07:40.486Z,98892.50
2022-10-17T11:10:23.160Z,98884.22
2022-10-17T11:13:04.651Z,98889.59
2022-10-17T11:15:47.068Z,98876.75
2022-10-17T11:18:51.775Z,98871.97
2022-10-17T11:21:20.346Z,98873.81
2022-10-17T11:23:59.425Z,98877.59
2022-10-17T11:26:31.560Z,98881.66
2022-10-17T11:28:58.825Z,98884.84
2022-10-17T11:31:28.880Z,98873.13
2022-10-17T11:34:01.692Z,98876.81
2022-10-17T11:36:34.406Z,98872.50
2022-10-17T11:39:06.318Z,98870.31
2022-10-17T11:41:43.171Z,98881.78
2022-10-17T11:44:18.810Z,98875.63
2022-10-17T11:46:45.253Z,98890.56
2022-10-17T11:49:19.835Z,98891.63
2022-10-17T11:52:00.830Z,98899.34
2022-10-17T11:54:50.866Z,98900.69
2022-10-17T11:57:53.777Z,98912.97
2022-10-17T12:00:48.994Z,98915.63
2022-10-17T12:03:51.151Z,98915.59
2022-10-17T12:06:39.136Z,98924.09
2022-10-17T12:09:34.194Z,98931.06
2022-10-17T12:12:02.421Z,98935.25
2022-10-17T12:14:46.413Z,98932.34
2022-10-17T12:17:41.413Z,98930.22
2022-10-17T12:20:26.226Z,98939.53
2022-10-17T12:22:59.501Z,98935.81
2022-10-17T12:25:30.426Z,98937.34
2022-10-17T12:28:06.951Z,98947.81
2022-10-17T12:30:33.478Z,98945.63
2022-10-17T12:33:12.544Z,98954.69
2022-10-17T12:35:41.636Z,98950.66
2022-10-17T12:38:15.575Z,98953.56
2022-10-17T12:40:46.318Z,98947.19
2022-10-17T12:43:18.069Z,98951.97
2022-10-17T12:45:51.605Z,98947.16
2022-10-17T12:48:36.402Z,98965.28
2022-10-17T12:54:22.470Z,98973.81
2022-10-17T12:56:49.083Z,98958.56
2022-10-17T12:59:24.617Z,98950.56
2022-10-17T13:01:53.822Z,98966.31
2022-10-17T13:04:22.962Z,98960.69
2022-10-17T13:06:57.483Z,98964.69
2022-10-17T13:09:27.615Z,98956.88
2022-10-17T13:11:54.531Z,98961.59
2022-10-17T13:14:22.930Z,98965.25
2022-10-17T13:17:00.338Z,98970.50
2022-10-17T13:19:52.475Z,98965.97
2022-10-17T13:22:49.516Z,98975.28
2022-10-17T13:25:19.560Z,98985.00
2022-10-17T13:27:46.454Z,98985.09
2022-10-17T13:30:24.785Z,98981.38
2022-10-17T13:32:55.522Z,98974.69
2022-10-17T13:35:59.986Z,98967.75
2022-10-17T13:40:51.401Z,98975.97
2022-10-17T13:43:21.639Z,98980.03
2022-10-17T13:45:52.985Z,98982.44
2022-10-17T13:48:22.286Z,98990.16
2022-10-17T13:50:50.607Z,98988.34
2022-10-17T13:53:24.781Z,98992.34
2022-10-17T13:59:05.087Z,98993.09
2022-10-17T14:01:33.935Z,98996.84
2022-10-17T14:04:08.754Z,98998.97
2022-10-17T14:06:47.587Z,99001.63
2022-10-17T14:09:38.455Z,99002.47
2022-10-17T14:12:12.507Z,99002.72
2022-10-17T14:15:05.557Z,98995.53
2022-10-17T14:17:29.089Z,98996.03
2022-10-17T14:20:34.026Z,98993.91
2022-10-17T14:23:20.928Z,98994.13
2022-10-17T14:25:40.374Z,99001.59
2022-10-17T14:28:15.139Z,98993.81
2022-10-17T14:31:01.701Z,99003.69
2022-10-17T14:33:31.560Z,99010.09
2022-10-17T14:35:58.974Z,99009.28
2022-10-17T14:38:26.951Z,99019.97
2022-10-17T14:41:04.831Z,99017.28
2022-10-17T14:43:43.251Z,99020.75
2022-10-17T14:46:14.988Z,99027.16
2022-10-17T14:48:41.507Z,99021.03
2022-10-17T14:51:09.386Z,99027.16
2022-10-17T14:53:36.172Z,99032.50
2022-10-17T14:56:05.932Z,99041.53
2022-10-17T14:58:33.142Z,99042.38
2022-10-17T15:01:01.451Z,99043.41
2022-10-17T15:03:27.988Z,99053.28
2022-10-17T15:05:54.994Z,99055.94
2022-10-17T15:08:22.409Z,99053.78
2022-10-17T15:10:49.324Z,99065.25
2022-10-17T15:13:27.562Z,99055.34
2022-10-17T15:15:55.382Z,99062.28
2022-10-17T15:18:21.904Z,99068.69
2022-10-17T15:20:55.213Z,99071.56
2022-10-17T15:23:31.191Z,99063.84
2022-10-17T15:25:57.646Z,99070.53
2022-10-17T15:28:24.165Z,99062.78
2022-10-17T15:30:50.716Z,99066.00
2022-10-17T15:33:17.180Z,99066.50
2022-10-17T15:35:44.147Z,99069.16
2022-10-17T15:38:12.254Z,99066.50
2022-10-17T15:40:38.716Z,99073.44
2022-10-17T15:43:05.179Z,99073.69
2022-10-17T15:45:31.788Z,99077.16
2022-10-17T15:48:03.655Z,99079.28
2022-10-17T15:50:30.847Z,99079.28
2022-10-17T15:52:57.368Z,99089.16
2022-10-17T15:55:24.335Z,99076.53
2022-10-17T15:57:50.823Z,99079.53
2022-10-17T16:00:24.048Z,99088.59
2022-10-17T16:02:50.677Z,99085.34
2022-10-17T16:05:25.951Z,99088.81
2022-10-17T16:07:55.619Z,99101.34
2022-10-17T16:10:22.303Z,99102.63
2022-10-17T16:12:49.891Z,99110.63
2022-10-17T16:15:22.847Z,99109.28
2022-10-17T16:17:49.970Z,99105.78
2022-10-17T16:20:16.460Z,99102.84
2022-10-17T16:22:43.904Z,99117.53
2022-10-17T16:25:22.025Z,99114.06
2022-10-17T16:27:49.391Z,99116.97
2022-10-17T16:30:16.239Z,99127.66
2022-10-17T16:32:42.768Z,99123.38
2022-10-17T16:35:09.673Z,99124.41
2022-10-17T16:37:36.152Z,99128.38
2022-10-17T16:40:04.325Z,99137.19
2022-10-17T16:42:31.091Z,99140.66
2022-10-17T16:44:57.816Z,99138.78
2022-10-17T16:47:24.274Z,99138.53
2022-10-17T16:49:50.809Z,99138.53
2022-10-17T16:52:17.267Z,99146.53
2022-10-17T16:54:43.763Z,99147.38
2022-10-17T16:57:10.301Z,99156.41
2022-10-17T16:59:36.828Z,99147.13
2022-10-17T17:02:03.283Z,99149.22
2022-10-17T17:04:29.841Z,99154.38
2022-10-17T17:06:56.421Z,99152.84
2022-10-17T17:09:22.979Z,99161.66
2022-10-17T17:11:49.447Z,99159.88
2022-10-17T17:14:15.919Z,99161.81
2022-10-17T17:16:43.342Z,99169.94
2022-10-17T17:19:13.999Z,99182.66
2022-10-17T17:21:40.570Z,99170.22
2022-10-17T17:24:07.047Z,99183.63
2022-10-17T17:26:37.598Z,99179.03
2022-10-17T17:29:04.333Z,99195.03
2022-10-17T17:31:31.958Z,99185.53
2022-10-17T17:33:58.552Z,99198.97
2022-10-17T17:36:27.389Z,99208.56
2022-10-17T17:38:55.135Z,99205.97
2022-10-17T17:41:21.695Z,99196.09
2022-10-17T17:43:48.460Z,99204.91
2022-10-17T17:46:18.815Z,99207.81
2022-10-17T17:48:46.057Z,99211.94
2022-10-17T17:51:13.784Z,99212.06
2022-10-17T17:53:40.275Z,99207.91
2022-10-17T17:56:08.830Z,99204.47
2022-10-17T17:58:35.542Z,99219.50
2022-10-17T18:01:02.320Z,99212.59
2022-10-17T18:03:28.823Z,99216.38
2022-10-17T18:05:55.275Z,99222.00
2022-10-17T18:08:21.767Z,99220.16
2022-10-17T18:10:49.637Z,99220.16
2022-10-17T18:13:16.250Z,99213.75
2022-10-17T18:15:43.608Z,99212.16
2022-10-17T18:18:10.149Z,99213.75
2022-10-17T18:20:43.092Z,99212.16
2022-10-17T18:23:09.985Z,99208.63
2022-10-17T18:25:36.490Z,99203.25
2022-10-17T18:28:03.335Z,99203.81
2022-10-17T18:30:33.672Z,99200.34
2022-10-17T18:33:01.100Z,99207.56
2022-10-17T18:35:28.011Z,99198.44
2022-10-17T18:37:56.714Z,99210.78
2022-10-17T18:40:23.335Z,99213.88
2022-10-17T18:42:49.799Z,99223.81
2022-10-17T18:45:17.381Z,99226.75
2022-10-17T18:47:45.267Z,99233.97
2022-10-17T18:50:11.790Z,99227.06
2022-10-17T18:52:38.249Z,99227.88
2022-10-17T18:55:05.055Z,99227.06
2022-10-17T18:57:31.793Z,99227.63
2022-10-17T18:59:58.459Z,99227.63
2022-10-17T19:02:24.927Z,99235.63
2022-10-17T19:04:51.400Z,99238.03
2022-10-17T19:07:20.039Z,99242.84
2022-10-17T19:09:48.063Z,99247.94
2022-10-17T19:12:14.516Z,99254.91
2022-10-17T19:14:41.084Z,99256.75
2022-10-17T19:17:07.548Z,99256.75
2022-10-17T19:19:34.524Z,99258.38
2022-10-17T19:22:03.284Z,99262.34
2022-10-17T19:24:29.962Z,99263.16
2022-10-17T19:26:58.028Z,99260.75
2022-10-17T19:29:26.372Z,99263.16
2022-10-17T19:31:53.132Z,99261.00
2022-10-17T19:34:19.784Z,99267.97
2022-10-17T19:36:46.339Z,99276.78
2022-10-17T19:39:15.055Z,99278.66
2022-10-17T19:41:46.594Z,99275.34
2022-10-17T19:44:13.356Z,99270.59
2022-10-17T19:46:40.075Z,99271.94
2022-10-17T19:49:06.711Z,99277.28
2022-10-17T19:51:33.292Z,99276.47
2022-10-17T19:54:00.506Z,99259.88
2022-10-17T19:56:27.951Z,99273.25
2022-10-17T19:58:55.504Z,99274.59
2022-10-17T20:01:23.845Z,99276.78
2022-10-17T20:03:50.510Z,99272.19
2022-10-17T20:06:17.550Z,99269.56
2022-10-17T20:08:44.102Z,99280.25
2022-10-17T20:11:15.394Z,99278.38
2022-10-17T20:13:41.882Z,99280.25
2022-10-17T20:16:09.101Z,99285.59
2022-10-17T20:18:35.594Z,99288.59
2022-10-17T20:21:06.708Z,99297.41
2022-10-17T20:23:33.312Z,99297.66
2022-10-17T20:26:13.558Z,99291.50
2022-10-17T20:28:45.696Z,99305.44
2022-10-17T20:31:12.371Z,99306.50
2022-10-17T20:33:42.028Z,99308.03
2022-10-17T20:36:11.225Z,99305.88
2022-10-17T20:38:37.697Z,99307.41
2022-10-17T20:41:08.936Z,99308.97
2022-10-17T20:43:35.599Z,99312.69
2022-10-17T20:46:11.057Z,99319.66
2022-10-17T20:48:54.646Z,99322.91
2022-10-17T20:51:21.211Z,99315.63
2022-10-17T20:53:48.247Z,99324.13
2022-10-17T20:56:20.931Z,99329.00
2022-10-17T20:58:59.295Z,99332.94
2022-10-17T21:01:26.086Z,99335.41
2022-10-17T21:03:52.722Z,99346.56
2022-10-17T21:06:19.403Z,99347.56
2022-10-17T21:08:46.547Z,99346.50
2022-10-17T21:11:15.102Z,99360.41
2022-10-17T21:13:41.623Z,99366.56
2022-10-17T21:16:12.619Z,99358.53
2022-10-17T21:18:39.233Z,99366.56
2022-10-17T21:21:19.406Z,99365.75
2022-10-17T21:23:46.745Z,99369.50
2022-10-17T21:26:13.431Z,99376.69
2022-10-17T21:28:40.590Z,99372.41
2022-10-17T21:31:12.357Z,99360.94
2022-10-17T21:33:39.294Z,99363.59
2022-10-17T21:36:06.059Z,99370.22
2022-10-17T21:38:34.805Z,99363.53
2022-10-17T21:41:01.357Z,99371.53
2022-10-17T21:43:27.809Z,99364.81
2022-10-17T21:45:54.275Z,99359.69
2022-10-17T21:48:20.800Z,99357.03
2022-10-17T21:50:47.309Z,99365.03
2022-10-17T21:53:13.824Z,99359.94
2022-10-17T21:55:40.343Z,99365.78
2022-10-17T21:58:06.831Z,99364.97
2022-10-17T22:00:33.323Z,99364.16
2022-10-17T22:03:00.966Z,99367.88
2022-10-17T22:05:30.215Z,99370.81
2022-10-17T22:07:56.684Z,99371.28
2022-10-17T22:10:23.190Z,99358.19
2022-10-17T22:12:49.653Z,99364.81
2022-10-17T22:15:16.135Z,99375.28
2022-10-17T22:17:42.595Z,99381.66
2022-10-17T22:20:09.184Z,99380.03
2022-10-17T22:22:35.645Z,99375.75
2022-10-17T22:25:02.115Z,99386.44
2022-10-17T22:27:28.853Z,99377.06
2022-10-17T22:29:55.604Z,99385.88
2022-10-17T22:32:22.654Z,99377.28
2022-10-17T22:34:49.327Z,99379.41
2022-10-17T22:37:15.795Z,99375.34
2022-10-17T22:39:42.280Z,99377.78
2022-10-17T22:42:08.859Z,99379.66
2022-10-17T22:44:35.410Z,99387.66
2022-10-17T22:47:01.889Z,99380.69
2022-10-17T22:49:28.370Z,99382.81
2022-10-17T22:51:54.828Z,99385.22
2022-10-17T22:54:21.294Z,99378.03
2022-10-17T22:56:47.743Z,99379.88
2022-10-17T22:59:15.303Z,99387.66
2022-10-17T23:01:41.838Z,99385.00
2022-10-17T23:04:08.367Z,99388.69
2022-10-17T23:06:34.819Z,99390.34
2022-10-17T23:09:01.352Z,99395.91
2022-10-17T23:11:27.845Z,99395.09
2022-10-17T23:13:54.307Z,99396.72
2022-10-17T23:16:20.771Z,99393.75
2022-10-17T23:18:47.239Z,99396.72
2022-10-17T23:21:13.735Z,99396.16
2022-10-17T23:23:40.205Z,99403.91
2022-10-17T23:26:08.865Z,99402.31
2022-10-17T23:28:35.703Z,99398.81
2022-10-17T23:31:16.503Z,99402.56
2022-10-17T23:33:44.728Z,99399.88
2022-10-17T23:36:12.380Z,99398.25
2022-10-17T23:38:39.764Z,99399.88
2022-10-17T23:41:06.209Z,99399.31
2022-10-17T23:43:34.170Z,99395.28
2022-10-17T23:46:04.225Z,99400.63
2022-10-17T23:48:30.709Z,99407.81
2022-10-17T23:50:57.459Z,99408.03
2022-10-17T23:53:24.045Z,99398.66
2022-10-17T23:55:50.570Z,99396.81
2022-10-17T23:58:17.268Z,99400.53
